Home > Products > Valid Products > MTR

000
SAUS45 KREV 310457
MTRDRA
METAR KDRA 310452Z AUTO 05014KT 10SM CLR 29/08 A3005 RMK AO2 SLP120
T02940083





000
SAUS45 KREV 310357
MTRDRA
METAR KDRA 310352Z AUTO 04016G21KT 10SM CLR 31/08 A3005 RMK AO2
SLP120 T03060078





000
SAUS45 KREV 310357
MTRDRA
METAR KDRA 310352Z AUTO 04016G21KT 10SM CLR 31/08 A3005 RMK AO2
SLP120 T03060078





000
SAUS45 KREV 310258 COR
MTRDRA
METAR KDRA 310252Z AUTO 02013KT 10SM CLR 32/08 A3003 RMK AO2 SLP115
T03170078 51014





000
SAUS45 KREV 310257 COR
MTRDRA
METAR KDRA 310252Z AUTO 02013KT 10SM CLR 32/08 A3003 RMK AO2 SLP115
T03170078 51014





000
SAUS45 KREV 310157
MTRDRA
METAR KDRA 310152Z AUTO 01013G22KT 10SM FEW050 FEW065 SCT100 32/09
A3002 RMK AO2 SLP111 T03220089





000
SAUS45 KREV 310057
MTRDRA
METAR KDRA 310052Z AUTO 30013KT 10SM CLR 31/11 A3003 RMK AO2 PK WND
30035/0006 SLP118 T03060111





000
SAUS45 KREV 302357
MTRDRA
METAR KDRA 302352Z AUTO 26011KT 10SM FEW120 37/04 A2998 RMK AO2
SLP096 T03670044 10394 20339 55012





000
SAUS45 KREV 302257
MTRDRA
METAR KDRA 302252Z AUTO VRB05KT 10SM CLR 39/04 A2998 RMK AO2 SLP092
T03890039





000
SAUS45 KREV 302157
MTRDRA
METAR KDRA 302152Z AUTO 32004KT 10SM CLR 38/04 A3000 RMK AO2 SLP099
T03830044





000
SAUS45 KREV 302056
MTRDRA
METAR KDRA 302052Z AUTO VRB04KT 10SM CLR 38/05 A3002 RMK AO2 SLP107
T03780050 58016





000
SAUS45 KREV 301957
MTRDRA
METAR KDRA 301952Z AUTO VRB04KT 10SM CLR 36/07 A3005 RMK AO2 SLP120
T03560067





000
SAUS45 KREV 301857
MTRDRA
METAR KDRA 301852Z AUTO 10SM CLR 35/07 A3006 RMK AO2 SLP124
T03500072





000
SAUS45 KREV 301757
MTRDRA
METAR KDRA 301752Z AUTO 02009G17KT 10SM CLR 34/08 A3008 RMK AO2
SLP128 T03440083 10344 20256 58003





000
SAUS45 KREV 301657
MTRDRA
METAR KDRA 301652Z AUTO 03011KT 10SM CLR 33/09 A3008 RMK AO2 SLP128
T03280094





000
SAUS45 KREV 301557
MTRDRA
METAR KDRA 301552Z AUTO 04011KT 10SM CLR 31/10 A3008 RMK AO2 SLP132
T03060100





000
SAUS45 KREV 301457
MTRDRA
METAR KDRA 301452Z AUTO 05011KT 10SM CLR 28/11 A3008 RMK AO2 SLP132
T02830106 53013





000
SAUS45 KREV 301257
MTRDRA
METAR KDRA 301252Z AUTO 03010KT 10SM CLR 26/11 A3005 RMK AO2 SLP122
T02610111





000
SAUS45 KREV 301157
MTRDRA
METAR KDRA 301152Z AUTO 04009KT 10SM CLR 26/12 A3004 RMK AO2 SLP120
T02610117 10278 20256 55001





000
SAUS45 KREV 301057
MTRDRA
METAR KDRA 301052Z AUTO 06005KT 10SM CLR 26/11 A3004 RMK AO2 SLP119
T02610111





000
SAUS45 KREV 300957
MTRDRA
METAR KDRA 300952Z AUTO 04010KT 10SM CLR 27/12 A3004 RMK AO2 SLP119
T02670117





000
SAUS45 KREV 300857
MTRDRA
METAR KDRA 300852Z AUTO 03014G18KT 10SM CLR 28/11 A3005 RMK AO2
SLP120 T02780111 55001





000
SAUS45 KREV 300757
MTRDRA
METAR KDRA 300752Z AUTO 10003KT 10SM CLR 26/10 A3004 RMK AO2 SLP118
T02560100 403440228





000
SAUS45 KREV 300657
MTRDRA
METAR KDRA 300652Z AUTO 05003KT 10SM CLR 27/10 A3005 RMK AO2 SLP123
T02720100





000
SAUS45 KREV 300557
MTRDRA
METAR KDRA 300552Z AUTO 03003KT 10SM CLR 28/10 A3005 RMK AO2 SLP124
T02780100 10344 20278 51012





000
SAUS45 KREV 300457
MTRDRA
METAR KDRA 300452Z AUTO 06004KT 10SM CLR 30/11 A3004 RMK AO2 SLP120
T03000106





000
SAUS45 KREV 300357
MTRDRA
METAR KDRA 300352Z AUTO 05004KT 10SM CLR 31/11 A3002 RMK AO2 SLP115
T03060106





000
SAUS45 KREV 300257
MTRDRA
METAR KDRA 300252Z AUTO 03008KT 10SM CLR 32/11 A3001 RMK AO2 SLP109
T03220111 55006





000
SAUS45 KREV 300157
MTRDRA
METAR KDRA 300152Z AUTO 00000KT 10SM BKN090 33/11 A3001 RMK AO2
SLP110 T03330111





000
SAUS45 KREV 300057
MTRDRA
METAR KDRA 300052Z AUTO 02008KT 10SM SCT100 BKN110 34/11 A3001 RMK
AO2 SLP110 T03390106





000
SAUS45 KREV 292357
MTRDRA
METAR KDRA 292352Z AUTO VRB05KT 10SM FEW080 34/09 A3003 RMK AO2
SLP118 T03390094 10344 20294 56019





000
SAUS45 KREV 292257
MTRDRA
METAR KDRA 292252Z AUTO VRB05KT 10SM BKN080 BKN095 33/11 A3005 RMK
AO2 SLP124 T03280111





000
SAUS45 KREV 292157
MTRDRA
METAR KDRA 292152Z AUTO 28007KT 250V320 10SM FEW080 FEW095 33/11
A3007 RMK AO2 SLP130 T03330111





000
SAUS45 KREV 292057
MTRDRA
METAR KDRA 292052Z AUTO VRB05KT 10SM CLR 32/11 A3009 RMK AO2 SLP139
T03220111 56015





000
SAUS45 KREV 291957
MTRDRA
METAR KDRA 291952Z AUTO 21014G19KT 10SM CLR 33/11 A3011 RMK AO2
SLP144 T03280111





000
SAUS45 KREV 291857
MTRDRA
METAR KDRA 291852Z AUTO VRB05G14KT 10SM CLR 31/12 A3012 RMK AO2
SLP150 T03060117





000
SAUS45 KREV 291757
MTRDRA
METAR KDRA 291752Z AUTO 18004KT 10SM CLR 30/13 A3014 RMK AO2 SLP157
T03000128 10300 20228 58002





000
SAUS45 KREV 291657
MTRDRA
METAR KDRA 291652Z AUTO VRB05KT 10SM CLR 28/14 A3015 RMK AO2 SLP159
T02830139





000
SAUS45 KREV 291557
MTRDRA
METAR KDRA 291552Z AUTO 02009KT 10SM SCT120 27/14 A3015 RMK AO2
SLP162 T02720144





000
SAUS45 KREV 291457
MTRDRA
METAR KDRA 291452Z AUTO 02010KT 10SM BKN070 BKN120 26/14 A3015 RMK
AO2 SLP161 T02610139 53009





000
SAUS45 KREV 291257
MTRDRA
METAR KDRA 291252Z AUTO 00000KT 10SM OVC095 23/15 A3012 RMK AO2
SLP154 T02330150





000
SAUS45 KREV 291157
MTRDRA
METAR KDRA 291152Z AUTO 23005KT 10SM OVC100 23/15 A3012 RMK AO2
SLP155 70001 T02280150 10261 20228 53000





000
SAUS45 KREV 291057
MTRDRA
METAR KDRA 291052Z AUTO 22005KT 10SM BKN100 BKN120 23/14 A3012 RMK
AO2 SLP153 T02330144





000
SAUS45 KREV 290957
MTRDRA
METAR KDRA 290952Z AUTO 06006KT 10SM CLR 25/13 A3011 RMK AO2 SLP147
T02500133





000
SAUS45 KREV 290857
MTRDRA
METAR KDRA 290852Z AUTO 04008KT 10SM CLR 24/13 A3012 RMK AO2 SLP148
T02440133 58005





000
SAUS45 KREV 290757
MTRDRA
METAR KDRA 290752Z AUTO 36005KT 10SM FEW110 25/14 A3013 RMK AO2
SLP153 T02500139 403280244





000
SAUS45 KREV 290657
MTRDRA
METAR KDRA 290652Z AUTO 02004KT 10SM CLR 26/14 A3013 RMK AO2 SLP151
T02610139





000
SAUS45 KREV 290556
MTRDRA
METAR KDRA 290552Z AUTO 32006KT 10SM FEW120 26/14 A3014 RMK AO2
SLP154 T02560144 10289 20256 53008





000
SAUS45 KREV 290457
MTRDRA
METAR KDRA 290452Z AUTO 00000KT 10SM FEW095 FEW120 27/14 A3013 RMK
AO2 SLP153 T02670144





000
SAUS45 KREV 290357
MTRDRA
METAR KDRA 290352Z AUTO 15003KT 10SM SCT095 BKN110 27/14 A3011 RMK
AO2 SLP148 T02720139





000
SAUS45 KREV 290257
MTRDRA
METAR KDRA 290252Z AUTO 11003KT 10SM SCT110 28/14 A3011 RMK AO2
SLP145 T02830144 55004





000
SAUS45 KREV 290157
MTRDRA
METAR KDRA 290152Z AUTO 29005KT 10SM FEW120 29/14 A3010 RMK AO2
SLP146 T02890144





000
SAUS45 KREV 290057
MTRDRA
METAR KDRA 290052Z AUTO 28003KT 10SM CLR 29/14 A3009 RMK AO2 SLP142
T02890139





000
SAUS45 KREV 282357
MTRDRA
METAR KDRA 282352Z AUTO 10005KT 10SM FEW120 27/15 A3012 RMK AO2
RAB2253E14 SLP153 P0001 60001 T02720150 10328 20256 58004





000
SAUS45 KREV 282257
MTRDRA
METAR KDRA 282252Z AUTO 12015KT 10SM BKN110 27/15 A3013 RMK AO2
SLP155 T02720150





000
SAUS45 KREV 282157
MTRDRA
METAR KDRA 282152Z AUTO 12015G24KT 10SM FEW110 29/13 A3014 RMK AO2
SLP158 T02890133





000
SAUS45 KREV 282057
MTRDRA
METAR KDRA 282052Z AUTO 12011G18KT 10SM CLR 32/14 A3013 RMK AO2
SLP152 T03170139 58011





000
SAUS45 KREV 281957
MTRDRA
METAR KDRA 281952Z AUTO 12017KT 10SM SCT100 31/14 A3016 RMK AO2
SLP163 T03060144





000
SAUS45 KREV 281857
MTRDRA
METAR KDRA 281852Z AUTO 12011G16KT 10SM SCT085 32/13 A3017 RMK AO2
SLP164 T03170128





000
SAUS45 KREV 281757
MTRDRA
METAR KDRA 281752Z AUTO 12011KT 10SM CLR 31/13 A3017 RMK AO2 SLP164
T03060128 10306 20244 50000





000
SAUS45 KREV 281657
MTRDRA
METAR KDRA 281652Z AUTO 13010KT 10SM OVC090 27/13 A3017 RMK AO2
SLP167 T02720133





000
SAUS45 KREV 281557
MTRDRA
METAR KDRA 281552Z AUTO 04007KT 10SM SCT095 28/13 A3017 RMK AO2
SLP163 T02830128





000
SAUS45 KREV 281457
MTRDRA
METAR KDRA 281452Z AUTO 03008KT 10SM BKN100 27/13 A3017 RMK AO2
SLP165 T02670128 53011





000
SAUS45 KREV 281256
MTRDRA
METAR KDRA 281252Z AUTO 03006KT 10SM BKN120 26/13 A3015 RMK AO2
SLP158 T02560133 $





000
SAUS45 KREV 281157
MTRDRA
METAR KDRA 281152Z AUTO 11007KT 10SM BKN095 24/14 A3013 RMK AO2
SLP157 T02440144 10283 20244 53008 $





000
SAUS45 KREV 281057
MTRDRA
METAR KDRA 281052Z AUTO 06004KT 10SM SCT090 26/12 A3012 RMK AO2
SLP144 T02560117 $





000
SAUS45 KREV 280957
MTRDRA
METAR KDRA 280952Z AUTO 08006KT 10SM SCT120 26/12 A3011 RMK AO2
SLP139 T02560122 $





000
SAUS45 KREV 280857
MTRDRA
METAR KDRA 280852Z AUTO 23005KT 10SM SCT090 26/13 A3011 RMK AO2
SLP142 T02560128 53004 $





000
SAUS45 KREV 280757
MTRDRA
METAR KDRA 280752Z AUTO 09012KT 10SM CLR 27/12 A3010 RMK AO2 SLP137
T02670117 403780250 $





000
SAUS45 KREV 280657
MTRDRA
METAR KDRA 280652Z AUTO 16006KT 10SM FEW080 FEW100 BKN120 27/12
A3010 RMK AO2 SLP134 T02670122 $





000
SAUS45 KREV 280556
MTRDRA
METAR KDRA 280552Z AUTO 11017G25KT 10SM FEW110 28/11 A3009 RMK AO2
PK WND 09028/0508 SLP133 60000 T02780106 10322 20278 51016 $





    US Dept of Commerce
    National Oceanic and Atmospheric Administration
    National Weather Service
    1325 East West Highway
    Silver Spring, MD 20910
    Page Author: NWS Internet Services Team
Disclaimer
Information Quality
Credits
Glossary
Privacy Policy
Freedom of Information Act (FOIA)
About Us
Career Opportunities